Warsaw, Poland
Current Conditions -  °F | °C
As of 1:30 AM on Friday 28 Nov 2014 (Local Time) from EPWA Reporting Station
Few Clouds Few Clouds  
Wind Chill: 18°   Ceiling: Unl
Heat Index: 28°   Visibility: 6mi
Dew Point: 25°   Wind: 12mph
Humidity: 86%   Direction: 110°ESE
Pressure: 30.21"   Gusts: NA
Location:  52.26°N, 21.02°E
Report Text: EPWA 272330Z 11010KT 9999 FEW015 M02/M04 Q1023 NOSIG
Loading
Personal Weather Stations






























Interactive Weather Map New forecast layout! Learn more

10-Day Weather Forecast

Advertisements
Track Severe Weather on mobile